sensor_id;sensor_type;location;lat;lon;timestamp;P1;durP1;ratioP1;P2;durP2;ratioP2
33926;SDS011;20485;50.992;5.550;2023-09-19T00:41:31;15.43;;;2.08;;
33926;SDS011;20485;50.992;5.550;2023-09-19T00:44:00;28.52;;;3.25;;
33926;SDS011;20485;50.992;5.550;2023-09-19T00:46:27;18.33;;;3.03;;
33926;SDS011;20485;50.992;5.550;2023-09-19T00:48:53;25.17;;;3.65;;
33926;SDS011;20485;50.992;5.550;2023-09-19T00:51:19;18.88;;;3.45;;
33926;SDS011;20485;50.992;5.550;2023-09-19T00:53:47;15.15;;;3.03;;
33926;SDS011;20485;50.992;5.550;2023-09-19T00:56:13;23.60;;;3.25;;
33926;SDS011;20485;50.992;5.550;2023-09-19T00:58:46;25.23;;;3.08;;
33926;SDS011;20485;50.992;5.550;2023-09-19T01:01:15;15.98;;;3.10;;
33926;SDS011;20485;50.992;5.550;2023-09-19T01:03:42;16.38;;;2.50;;
33926;SDS011;20485;50.992;5.550;2023-09-19T01:06:08;16.88;;;2.53;;
33926;SDS011;20485;50.992;5.550;2023-09-19T01:08:33;19.88;;;2.90;;
33926;SDS011;20485;50.992;5.550;2023-09-19T01:11:01;20.17;;;2.97;;
33926;SDS011;20485;50.992;5.550;2023-09-19T01:13:52;19.75;;;2.88;;
33926;SDS011;20485;50.992;5.550;2023-09-19T01:25:19;17.90;;;2.60;;
33926;SDS011;20485;50.992;5.550;2023-09-19T01:30:56;10.82;;;2.25;;
33926;SDS011;20485;50.992;5.550;2023-09-19T01:33:25;16.20;;;2.13;;
33926;SDS011;20485;50.992;5.550;2023-09-19T01:35:51;18.15;;;2.60;;
33926;SDS011;20485;50.992;5.550;2023-09-19T01:38:18;18.10;;;3.15;;
33926;SDS011;20485;50.992;5.550;2023-09-19T02:56:36;20.50;;;3.30;;
33926;SDS011;20485;50.992;5.550;2023-09-19T02:59:02;24.65;;;3.10;;
33926;SDS011;20485;50.992;5.550;2023-09-19T03:01:28;15.90;;;2.90;;
33926;SDS011;20485;50.992;5.550;2023-09-19T03:03:54;18.50;;;3.58;;
33926;SDS011;20485;50.992;5.550;2023-09-19T03:06:20;17.95;;;3.00;;
33926;SDS011;20485;50.992;5.550;2023-09-19T03:08:46;23.45;;;3.58;;
33926;SDS011;20485;50.992;5.550;2023-09-19T03:11:14;23.48;;;3.30;;
33926;SDS011;20485;50.992;5.550;2023-09-19T03:13:41;20.33;;;3.35;;
33926;SDS011;20485;50.992;5.550;2023-09-19T03:16:07;16.65;;;2.63;;
33926;SDS011;20485;50.992;5.550;2023-09-19T03:18:34;15.90;;;2.92;;
33926;SDS011;20485;50.992;5.550;2023-09-19T03:21:00;18.30;;;2.75;;
33926;SDS011;20485;50.992;5.550;2023-09-19T03:23:26;20.55;;;3.13;;
33926;SDS011;20485;50.992;5.550;2023-09-19T03:25:53;22.58;;;2.75;;
33926;SDS011;20485;50.992;5.550;2023-09-19T03:28:19;21.25;;;2.88;;
33926;SDS011;20485;50.992;5.550;2023-09-19T03:30:46;19.95;;;3.45;;
33926;SDS011;20485;50.992;5.550;2023-09-19T03:33:22;15.45;;;3.22;;
33926;SDS011;20485;50.992;5.550;2023-09-19T03:35:51;17.92;;;3.03;;
33926;SDS011;20485;50.992;5.550;2023-09-19T03:38:18;22.27;;;3.35;;
33926;SDS011;20485;50.992;5.550;2023-09-19T03:40:44;15.85;;;2.30;;
33926;SDS011;20485;50.992;5.550;2023-09-19T03:43:10;24.27;;;3.33;;
33926;SDS011;20485;50.992;5.550;2023-09-19T03:45:36;15.50;;;2.92;;
33926;SDS011;20485;50.992;5.550;2023-09-19T03:48:08;17.63;;;3.05;;
33926;SDS011;20485;50.992;5.550;2023-09-19T03:50:37;19.20;;;2.70;;
33926;SDS011;20485;50.992;5.550;2023-09-19T03:53:02;16.02;;;2.90;;
33926;SDS011;20485;50.992;5.550;2023-09-19T05:52:34;12.80;;;2.17;;
33926;SDS011;20485;50.992;5.550;2023-09-19T05:55:08;20.08;;;3.20;;
33926;SDS011;20485;50.992;5.550;2023-09-19T05:57:37;15.25;;;3.97;;
33926;SDS011;20485;50.992;5.550;2023-09-19T06:00:07;13.55;;;2.33;;
33926;SDS011;20485;50.992;5.550;2023-09-19T06:02:35;18.17;;;2.70;;
33926;SDS011;20485;50.992;5.550;2023-09-19T06:05:03;16.25;;;2.35;;
33926;SDS011;20485;50.992;5.550;2023-09-19T06:07:35;16.35;;;2.40;;
33926;SDS011;20485;50.992;5.550;2023-09-19T06:10:05;25.33;;;3.30;;
33926;SDS011;20485;50.992;5.550;2023-09-19T06:12:32;19.77;;;2.45;;
33926;SDS011;20485;50.992;5.550;2023-09-19T06:15:02;16.30;;;3.38;;
33926;SDS011;20485;50.992;5.550;2023-09-19T06:17:30;25.02;;;2.88;;
33926;SDS011;20485;50.992;5.550;2023-09-19T06:19:56;19.80;;;3.28;;
33926;SDS011;20485;50.992;5.550;2023-09-19T06:22:22;11.95;;;2.90;;
33926;SDS011;20485;50.992;5.550;2023-09-19T06:24:49;23.20;;;3.53;;
33926;SDS011;20485;50.992;5.550;2023-09-19T06:27:15;17.50;;;3.70;;
33926;SDS011;20485;50.992;5.550;2023-09-19T06:29:41;15.27;;;3.47;;
33926;SDS011;20485;50.992;5.550;2023-09-19T06:32:10;21.70;;;3.80;;
33926;SDS011;20485;50.992;5.550;2023-09-19T06:34:36;28.23;;;3.17;;
33926;SDS011;20485;50.992;5.550;2023-09-19T06:37:03;15.05;;;2.65;;
33926;SDS011;20485;50.992;5.550;2023-09-19T06:39:31;13.52;;;2.50;;
33926;SDS011;20485;50.992;5.550;2023-09-19T06:41:57;13.88;;;2.45;;
33926;SDS011;20485;50.992;5.550;2023-09-19T06:44:23;20.73;;;2.42;;
33926;SDS011;20485;50.992;5.550;2023-09-19T06:46:50;14.75;;;2.38;;
33926;SDS011;20485;50.992;5.550;2023-09-19T08:03:36;17.38;;;3.00;;
33926;SDS011;20485;50.992;5.550;2023-09-19T08:06:07;14.63;;;2.63;;
33926;SDS011;20485;50.992;5.550;2023-09-19T08:08:33;12.38;;;2.47;;
33926;SDS011;20485;50.992;5.550;2023-09-19T08:11:02;15.27;;;2.42;;
33926;SDS011;20485;50.992;5.550;2023-09-19T08:13:36;11.25;;;2.42;;
33926;SDS011;20485;50.992;5.550;2023-09-19T08:16:03;13.43;;;2.50;;
33926;SDS011;20485;50.992;5.550;2023-09-19T08:18:29;17.73;;;2.88;;
33926;SDS011;20485;50.992;5.550;2023-09-19T08:20:55;14.48;;;2.33;;
33926;SDS011;20485;50.992;5.550;2023-09-19T08:23:23;17.10;;;2.78;;
33926;SDS011;20485;50.992;5.550;2023-09-19T08:25:49;20.73;;;2.90;;
33926;SDS011;20485;50.992;5.550;2023-09-19T08:28:15;17.83;;;2.47;;
33926;SDS011;20485;50.992;5.550;2023-09-19T08:30:43;15.73;;;3.20;;
33926;SDS011;20485;50.992;5.550;2023-09-19T08:33:12;17.30;;;2.38;;
33926;SDS011;20485;50.992;5.550;2023-09-19T08:35:40;19.75;;;2.97;;
33926;SDS011;20485;50.992;5.550;2023-09-19T08:38:08;21.02;;;2.67;;
33926;SDS011;20485;50.992;5.550;2023-09-19T08:40:38;17.33;;;2.63;;
33926;SDS011;20485;50.992;5.550;2023-09-19T08:43:06;14.15;;;2.13;;
33926;SDS011;20485;50.992;5.550;2023-09-19T08:45:32;20.63;;;2.88;;
33926;SDS011;20485;50.992;5.550;2023-09-19T08:48:09;20.92;;;2.65;;
33926;SDS011;20485;50.992;5.550;2023-09-19T08:50:44;21.05;;;3.28;;
33926;SDS011;20485;50.992;5.550;2023-09-19T08:53:41;17.95;;;2.70;;
33926;SDS011;20485;50.992;5.550;2023-09-19T08:56:14;21.60;;;2.70;;
33926;SDS011;20485;50.992;5.550;2023-09-19T08:58:48;23.42;;;2.90;;
33926;SDS011;20485;50.992;5.550;2023-09-19T09:01:20;18.88;;;2.65;;
33926;SDS011;20485;50.992;5.550;2023-09-19T09:03:49;11.95;;;2.45;;
33926;SDS011;20485;50.992;5.550;2023-09-19T09:06:17;17.08;;;2.67;;
33926;SDS011;20485;50.992;5.550;2023-09-19T09:08:45;16.30;;;2.53;;
33926;SDS011;20485;50.992;5.550;2023-09-19T09:11:12;9.57;;;1.98;;
33926;SDS011;20485;50.992;5.550;2023-09-19T09:13:39;15.07;;;2.60;;
33926;SDS011;20485;50.992;5.550;2023-09-19T09:16:06;12.20;;;2.90;;
33926;SDS011;20485;50.992;5.550;2023-09-19T09:18:33;12.65;;;2.25;;
33926;SDS011;20485;50.992;5.550;2023-09-19T09:20:59;21.77;;;2.50;;
33926;SDS011;20485;50.992;5.550;2023-09-19T09:23:26;15.38;;;3.08;;
33926;SDS011;20485;50.992;5.550;2023-09-19T09:25:54;17.85;;;2.88;;
33926;SDS011;20485;50.992;5.550;2023-09-19T09:28:34;16.42;;;3.63;;
33926;SDS011;20485;50.992;5.550;2023-09-19T09:31:02;17.40;;;2.55;;
33926;SDS011;20485;50.992;5.550;2023-09-19T09:33:32;11.50;;;2.88;;
33926;SDS011;20485;50.992;5.550;2023-09-19T09:35:59;14.05;;;2.90;;
33926;SDS011;20485;50.992;5.550;2023-09-19T09:38:28;15.27;;;2.10;;
33926;SDS011;20485;50.992;5.550;2023-09-19T09:40:58;12.80;;;2.70;;
33926;SDS011;20485;50.992;5.550;2023-09-19T09:43:35;9.85;;;2.13;;
33926;SDS011;20485;50.992;5.550;2023-09-19T09:48:47;12.48;;;2.00;;
33926;SDS011;20485;50.992;5.550;2023-09-19T09:54:27;11.88;;;2.33;;
33926;SDS011;20485;50.992;5.550;2023-09-19T09:59:57;13.27;;;2.55;;
33926;SDS011;20485;50.992;5.550;2023-09-19T10:02:34;10.93;;;2.65;;
33926;SDS011;20485;50.992;5.550;2023-09-19T10:05:13;10.00;;;2.45;;
33926;SDS011;20485;50.992;5.550;2023-09-19T10:07:52;16.35;;;2.25;;
33926;SDS011;20485;50.992;5.550;2023-09-19T10:10:31;10.07;;;2.42;;
33926;SDS011;20485;50.992;5.550;2023-09-19T10:13:07;10.35;;;3.28;;
33926;SDS011;20485;50.992;5.550;2023-09-19T10:15:37;12.50;;;2.47;;
33926;SDS011;20485;50.992;5.550;2023-09-19T10:18:06;11.70;;;2.47;;
33926;SDS011;20485;50.992;5.550;2023-09-19T10:20:36;16.08;;;2.88;;
33926;SDS011;20485;50.992;5.550;2023-09-19T10:23:07;8.13;;;2.20;;
33926;SDS011;20485;50.992;5.550;2023-09-19T10:25:38;22.67;;;3.40;;
33926;SDS011;20485;50.992;5.550;2023-09-19T10:28:08;21.42;;;3.03;;
33926;SDS011;20485;50.992;5.550;2023-09-19T10:30:42;17.85;;;4.03;;
33926;SDS011;20485;50.992;5.550;2023-09-19T10:33:10;16.80;;;2.90;;
33926;SDS011;20485;50.992;5.550;2023-09-19T10:35:46;14.25;;;2.85;;
33926;SDS011;20485;50.992;5.550;2023-09-19T10:38:14;15.55;;;2.92;;
33926;SDS011;20485;50.992;5.550;2023-09-19T10:40:44;16.02;;;2.70;;
33926;SDS011;20485;50.992;5.550;2023-09-19T10:43:15;14.90;;;2.92;;
33926;SDS011;20485;50.992;5.550;2023-09-19T10:45:43;14.13;;;2.72;;
33926;SDS011;20485;50.992;5.550;2023-09-19T10:48:19;18.33;;;3.15;;
33926;SDS011;20485;50.992;5.550;2023-09-19T10:53:16;13.30;;;2.42;;
33926;SDS011;20485;50.992;5.550;2023-09-19T10:55:59;11.88;;;2.55;;
33926;SDS011;20485;50.992;5.550;2023-09-19T10:58:28;13.30;;;3.40;;
33926;SDS011;20485;50.992;5.550;2023-09-19T11:01:04;10.95;;;2.05;;
33926;SDS011;20485;50.992;5.550;2023-09-19T11:03:37;18.80;;;2.53;;
33926;SDS011;20485;50.992;5.550;2023-09-19T11:06:09;12.73;;;2.05;;
33926;SDS011;20485;50.992;5.550;2023-09-19T11:30:42;10.40;;;1.85;;
33926;SDS011;20485;50.992;5.550;2023-09-19T11:33:19;8.25;;;1.52;;
33926;SDS011;20485;50.992;5.550;2023-09-19T11:43:52;10.57;;;1.85;;
33926;SDS011;20485;50.992;5.550;2023-09-19T11:46:24;8.02;;;1.80;;
33926;SDS011;20485;50.992;5.550;2023-09-19T11:48:52;17.77;;;1.83;;
33926;SDS011;20485;50.992;5.550;2023-09-19T11:51:18;12.32;;;1.77;;
33926;SDS011;20485;50.992;5.550;2023-09-19T11:53:57;6.97;;;1.73;;
33926;SDS011;20485;50.992;5.550;2023-09-19T11:56:26;5.30;;;1.52;;
33926;SDS011;20485;50.992;5.550;2023-09-19T11:58:53;12.32;;;1.83;;
33926;SDS011;20485;50.992;5.550;2023-09-19T12:01:24;4.97;;;1.10;;
33926;SDS011;20485;50.992;5.550;2023-09-19T12:03:58;3.78;;;1.20;;
33926;SDS011;20485;50.992;5.550;2023-09-19T12:06:25;10.13;;;1.65;;
33926;SDS011;20485;50.992;5.550;2023-09-19T12:08:52;9.43;;;1.13;;
33926;SDS011;20485;50.992;5.550;2023-09-19T12:11:22;9.50;;;1.40;;
33926;SDS011;20485;50.992;5.550;2023-09-19T12:13:50;8.93;;;1.30;;
33926;SDS011;20485;50.992;5.550;2023-09-19T12:16:18;11.02;;;1.70;;
33926;SDS011;20485;50.992;5.550;2023-09-19T12:18:48;5.05;;;1.15;;
33926;SDS011;20485;50.992;5.550;2023-09-19T12:21:22;6.03;;;1.15;;
33926;SDS011;20485;50.992;5.550;2023-09-19T12:23:58;8.15;;;1.25;;
33926;SDS011;20485;50.992;5.550;2023-09-19T12:26:29;5.30;;;1.25;;
33926;SDS011;20485;50.992;5.550;2023-09-19T12:28:59;7.57;;;2.25;;
33926;SDS011;20485;50.992;5.550;2023-09-19T12:31:26;10.05;;;1.50;;
33926;SDS011;20485;50.992;5.550;2023-09-19T12:33:55;8.43;;;1.55;;
33926;SDS011;20485;50.992;5.550;2023-09-19T12:36:23;7.22;;;1.48;;
33926;SDS011;20485;50.992;5.550;2023-09-19T12:38:55;10.63;;;1.63;;
33926;SDS011;20485;50.992;5.550;2023-09-19T12:41:24;8.25;;;1.40;;
33926;SDS011;20485;50.992;5.550;2023-09-19T12:43:51;13.38;;;1.77;;
33926;SDS011;20485;50.992;5.550;2023-09-19T12:46:23;7.50;;;1.33;;
33926;SDS011;20485;50.992;5.550;2023-09-19T12:49:14;7.80;;;1.30;;
33926;SDS011;20485;50.992;5.550;2023-09-19T12:54:11;7.22;;;1.45;;
33926;SDS011;20485;50.992;5.550;2023-09-19T12:56:40;9.10;;;1.13;;
33926;SDS011;20485;50.992;5.550;2023-09-19T12:59:09;7.65;;;1.30;;
33926;SDS011;20485;50.992;5.550;2023-09-19T13:01:38;7.20;;;1.10;;
33926;SDS011;20485;50.992;5.550;2023-09-19T13:06:47;7.47;;;1.13;;
33926;SDS011;20485;50.992;5.550;2023-09-19T13:09:14;3.13;;;0.80;;
33926;SDS011;20485;50.992;5.550;2023-09-19T13:11:40;3.13;;;0.80;;
33926;SDS011;20485;50.992;5.550;2023-09-19T13:19:41;7.05;;;1.35;;
33926;SDS011;20485;50.992;5.550;2023-09-19T13:25:28;3.15;;;0.75;;
33926;SDS011;20485;50.992;5.550;2023-09-19T13:27:55;5.43;;;1.17;;
33926;SDS011;20485;50.992;5.550;2023-09-19T13:30:28;9.63;;;1.02;;
33926;SDS011;20485;50.992;5.550;2023-09-19T13:33:05;7.97;;;1.02;;
33926;SDS011;20485;50.992;5.550;2023-09-19T13:35:36;4.05;;;1.13;;
33926;SDS011;20485;50.992;5.550;2023-09-19T13:38:08;5.13;;;1.10;;
33926;SDS011;20485;50.992;5.550;2023-09-19T13:40:40;7.30;;;0.93;;
33926;SDS011;20485;50.992;5.550;2023-09-19T13:43:09;7.40;;;0.93;;
33926;SDS011;20485;50.992;5.550;2023-09-19T13:45:36;3.63;;;1.02;;
33926;SDS011;20485;50.992;5.550;2023-09-19T13:48:02;8.85;;;1.27;;
33926;SDS011;20485;50.992;5.550;2023-09-19T13:50:28;5.50;;;1.20;;
33926;SDS011;20485;50.992;5.550;2023-09-19T13:52:54;8.50;;;1.27;;
33926;SDS011;20485;50.992;5.550;2023-09-19T13:55:20;8.85;;;1.38;;
33926;SDS011;20485;50.992;5.550;2023-09-19T13:57:46;14.38;;;1.67;;
33926;SDS011;20485;50.992;5.550;2023-09-19T14:00:15;4.50;;;1.25;;
33926;SDS011;20485;50.992;5.550;2023-09-19T14:02:41;10.05;;;1.30;;
33926;SDS011;20485;50.992;5.550;2023-09-19T14:05:09;8.45;;;1.20;;
33926;SDS011;20485;50.992;5.550;2023-09-19T14:07:37;4.40;;;1.35;;
33926;SDS011;20485;50.992;5.550;2023-09-19T14:10:03;5.57;;;1.25;;
33926;SDS011;20485;50.992;5.550;2023-09-19T14:12:33;3.78;;;1.10;;
33926;SDS011;20485;50.992;5.550;2023-09-19T14:15:00;6.30;;;1.40;;
33926;SDS011;20485;50.992;5.550;2023-09-19T14:17:26;8.10;;;1.00;;
33926;SDS011;20485;50.992;5.550;2023-09-19T14:19:52;3.10;;;0.85;;
33926;SDS011;20485;50.992;5.550;2023-09-19T14:22:17;5.55;;;1.10;;
33926;SDS011;20485;50.992;5.550;2023-09-19T14:24:43;7.60;;;1.63;;
33926;SDS011;20485;50.992;5.550;2023-09-19T14:27:09;9.25;;;1.55;;
33926;SDS011;20485;50.992;5.550;2023-09-19T14:29:35;10.77;;;1.90;;
33926;SDS011;20485;50.992;5.550;2023-09-19T14:32:01;7.43;;;1.25;;
33926;SDS011;20485;50.992;5.550;2023-09-19T14:34:27;5.40;;;1.80;;
33926;SDS011;20485;50.992;5.550;2023-09-19T14:36:55;5.05;;;1.30;;
33926;SDS011;20485;50.992;5.550;2023-09-19T14:39:21;4.30;;;0.90;;
33926;SDS011;20485;50.992;5.550;2023-09-19T14:41:48;5.57;;;1.10;;
33926;SDS011;20485;50.992;5.550;2023-09-19T14:44:14;7.50;;;1.40;;
33926;SDS011;20485;50.992;5.550;2023-09-19T14:46:41;5.45;;;1.60;;
33926;SDS011;20485;50.992;5.550;2023-09-19T14:49:08;5.25;;;1.40;;
33926;SDS011;20485;50.992;5.550;2023-09-19T14:51:35;6.78;;;1.63;;
33926;SDS011;20485;50.992;5.550;2023-09-19T14:54:01;8.45;;;1.85;;
33926;SDS011;20485;50.992;5.550;2023-09-19T14:56:27;9.57;;;1.67;;
33926;SDS011;20485;50.992;5.550;2023-09-19T14:58:55;2.67;;;1.08;;
33926;SDS011;20485;50.992;5.550;2023-09-19T15:01:21;7.43;;;1.13;;
33926;SDS011;20485;50.992;5.550;2023-09-19T15:03:49;5.35;;;1.42;;
33926;SDS011;20485;50.992;5.550;2023-09-19T15:06:15;5.35;;;1.40;;
33926;SDS011;20485;50.992;5.550;2023-09-19T15:08:42;5.72;;;1.00;;
33926;SDS011;20485;50.992;5.550;2023-09-19T15:11:13;7.43;;;1.35;;
33926;SDS011;20485;50.992;5.550;2023-09-19T15:13:42;7.30;;;1.45;;
33926;SDS011;20485;50.992;5.550;2023-09-19T15:16:09;4.53;;;1.27;;
33926;SDS011;20485;50.992;5.550;2023-09-19T15:18:39;7.20;;;1.60;;
33926;SDS011;20485;50.992;5.550;2023-09-19T15:21:07;8.60;;;1.42;;
33926;SDS011;20485;50.992;5.550;2023-09-19T15:23:34;6.88;;;1.33;;
33926;SDS011;20485;50.992;5.550;2023-09-19T15:26:02;7.57;;;1.83;;
33926;SDS011;20485;50.992;5.550;2023-09-19T15:28:28;7.25;;;1.80;;
33926;SDS011;20485;50.992;5.550;2023-09-19T15:31:01;13.43;;;1.58;;
33926;SDS011;20485;50.992;5.550;2023-09-19T15:33:32;7.72;;;1.77;;
33926;SDS011;20485;50.992;5.550;2023-09-19T15:36:05;4.53;;;1.02;;
33926;SDS011;20485;50.992;5.550;2023-09-19T15:41:39;3.25;;;1.50;;
33926;SDS011;20485;50.992;5.550;2023-09-19T15:44:14;10.70;;;1.63;;
33926;SDS011;20485;50.992;5.550;2023-09-19T15:46:41;9.93;;;1.33;;
33926;SDS011;20485;50.992;5.550;2023-09-19T15:49:07;5.13;;;1.48;;
33926;SDS011;20485;50.992;5.550;2023-09-19T15:51:34;6.82;;;1.50;;
33926;SDS011;20485;50.992;5.550;2023-09-19T15:54:01;7.80;;;1.60;;
33926;SDS011;20485;50.992;5.550;2023-09-19T15:56:32;7.13;;;1.50;;
33926;SDS011;20485;50.992;5.550;2023-09-19T15:59:00;7.22;;;1.58;;
33926;SDS011;20485;50.992;5.550;2023-09-19T16:01:25;9.07;;;1.90;;
33926;SDS011;20485;50.992;5.550;2023-09-19T16:03:52;2.97;;;1.20;;
33926;SDS011;20485;50.992;5.550;2023-09-19T16:06:21;4.82;;;1.35;;
33926;SDS011;20485;50.992;5.550;2023-09-19T16:08:57;7.30;;;1.38;;
33926;SDS011;20485;50.992;5.550;2023-09-19T16:11:24;5.88;;;1.10;;
33926;SDS011;20485;50.992;5.550;2023-09-19T16:13:51;7.88;;;1.33;;
33926;SDS011;20485;50.992;5.550;2023-09-19T16:16:18;6.18;;;1.30;;
33926;SDS011;20485;50.992;5.550;2023-09-19T16:18:48;5.40;;;1.80;;
33926;SDS011;20485;50.992;5.550;2023-09-19T16:21:16;4.60;;;1.60;;
33926;SDS011;20485;50.992;5.550;2023-09-19T16:23:45;4.15;;;1.27;;
33926;SDS011;20485;50.992;5.550;2023-09-19T16:26:11;7.15;;;1.20;;
33926;SDS011;20485;50.992;5.550;2023-09-19T16:28:40;4.75;;;1.35;;
33926;SDS011;20485;50.992;5.550;2023-09-19T16:31:07;5.47;;;1.58;;
33926;SDS011;20485;50.992;5.550;2023-09-19T16:33:34;5.85;;;1.52;;
33926;SDS011;20485;50.992;5.550;2023-09-19T16:36:01;12.55;;;1.45;;
33926;SDS011;20485;50.992;5.550;2023-09-19T16:38:31;4.22;;;1.40;;
33926;SDS011;20485;50.992;5.550;2023-09-19T16:40:59;8.48;;;1.40;;
33926;SDS011;20485;50.992;5.550;2023-09-19T16:43:25;5.82;;;1.70;;
33926;SDS011;20485;50.992;5.550;2023-09-19T16:45:52;8.10;;;1.50;;
33926;SDS011;20485;50.992;5.550;2023-09-19T16:48:21;3.55;;;1.40;;
33926;SDS011;20485;50.992;5.550;2023-09-19T16:50:48;5.53;;;1.17;;
33926;SDS011;20485;50.992;5.550;2023-09-19T16:53:15;10.25;;;1.60;;
33926;SDS011;20485;50.992;5.550;2023-09-19T16:55:42;6.82;;;1.17;;
33926;SDS011;20485;50.992;5.550;2023-09-19T16:58:09;9.13;;;1.55;;
33926;SDS011;20485;50.992;5.550;2023-09-19T17:00:37;5.18;;;1.40;;
33926;SDS011;20485;50.992;5.550;2023-09-19T17:03:04;6.00;;;1.63;;
33926;SDS011;20485;50.992;5.550;2023-09-19T17:05:30;12.30;;;1.45;;
33926;SDS011;20485;50.992;5.550;2023-09-19T17:07:56;8.88;;;1.77;;
33926;SDS011;20485;50.992;5.550;2023-09-19T17:10:24;4.22;;;1.50;;
33926;SDS011;20485;50.992;5.550;2023-09-19T17:12:51;5.65;;;1.90;;
33926;SDS011;20485;50.992;5.550;2023-09-19T17:15:20;11.23;;;1.73;;
33926;SDS011;20485;50.992;5.550;2023-09-19T17:17:46;9.93;;;2.17;;
33926;SDS011;20485;50.992;5.550;2023-09-19T17:20:12;7.97;;;2.40;;
33926;SDS011;20485;50.992;5.550;2023-09-19T17:22:38;7.93;;;2.00;;
33926;SDS011;20485;50.992;5.550;2023-09-19T17:25:03;3.75;;;1.45;;
33926;SDS011;20485;50.992;5.550;2023-09-19T17:27:29;5.50;;;1.88;;
33926;SDS011;20485;50.992;5.550;2023-09-19T17:29:55;4.95;;;1.63;;
33926;SDS011;20485;50.992;5.550;2023-09-19T17:32:21;3.53;;;1.40;;
33926;SDS011;20485;50.992;5.550;2023-09-19T17:34:47;7.85;;;1.73;;
33926;SDS011;20485;50.992;5.550;2023-09-19T17:37:15;6.55;;;1.50;;
33926;SDS011;20485;50.992;5.550;2023-09-19T17:39:41;6.93;;;1.50;;
33926;SDS011;20485;50.992;5.550;2023-09-19T17:42:08;11.77;;;2.28;;
33926;SDS011;20485;50.992;5.550;2023-09-19T17:44:37;6.43;;;1.50;;
33926;SDS011;20485;50.992;5.550;2023-09-19T17:47:03;10.35;;;1.98;;
33926;SDS011;20485;50.992;5.550;2023-09-19T17:49:29;6.38;;;1.30;;
33926;SDS011;20485;50.992;5.550;2023-09-19T17:51:55;7.20;;;1.75;;
33926;SDS011;20485;50.992;5.550;2023-09-19T17:54:21;10.25;;;1.70;;
33926;SDS011;20485;50.992;5.550;2023-09-19T17:56:48;7.05;;;2.05;;
33926;SDS011;20485;50.992;5.550;2023-09-19T17:59:14;9.05;;;1.70;;
33926;SDS011;20485;50.992;5.550;2023-09-19T18:01:40;8.95;;;1.55;;
33926;SDS011;20485;50.992;5.550;2023-09-19T18:04:08;11.25;;;1.98;;
33926;SDS011;20485;50.992;5.550;2023-09-19T18:06:35;8.70;;;1.63;;
33926;SDS011;20485;50.992;5.550;2023-09-19T18:09:02;14.95;;;1.83;;
33926;SDS011;20485;50.992;5.550;2023-09-19T18:11:31;10.05;;;1.90;;
33926;SDS011;20485;50.992;5.550;2023-09-19T18:13:57;9.95;;;1.95;;
33926;SDS011;20485;50.992;5.550;2023-09-19T18:16:24;6.75;;;1.80;;
33926;SDS011;20485;50.992;5.550;2023-09-19T18:18:56;7.78;;;1.92;;
33926;SDS011;20485;50.992;5.550;2023-09-19T18:21:22;5.68;;;1.73;;
33926;SDS011;20485;50.992;5.550;2023-09-19T18:23:54;12.40;;;2.30;;
33926;SDS011;20485;50.992;5.550;2023-09-19T18:26:24;6.55;;;1.90;;
33926;SDS011;20485;50.992;5.550;2023-09-19T18:28:50;12.45;;;1.65;;
33926;SDS011;20485;50.992;5.550;2023-09-19T18:31:18;7.03;;;1.88;;
33926;SDS011;20485;50.992;5.550;2023-09-19T18:33:51;9.48;;;1.52;;
33926;SDS011;20485;50.992;5.550;2023-09-19T18:36:18;9.25;;;1.25;;
33926;SDS011;20485;50.992;5.550;2023-09-19T18:38:48;7.10;;;2.08;;
33926;SDS011;20485;50.992;5.550;2023-09-19T18:41:20;7.15;;;1.80;;
33926;SDS011;20485;50.992;5.550;2023-09-19T18:43:56;10.18;;;1.92;;
33926;SDS011;20485;50.992;5.550;2023-09-19T18:46:26;9.48;;;1.83;;
33926;SDS011;20485;50.992;5.550;2023-09-19T18:48:59;7.55;;;1.90;;
33926;SDS011;20485;50.992;5.550;2023-09-19T18:51:31;12.32;;;2.28;;
33926;SDS011;20485;50.992;5.550;2023-09-19T18:54:07;6.95;;;1.73;;
33926;SDS011;20485;50.992;5.550;2023-09-19T18:56:39;14.63;;;1.70;;
33926;SDS011;20485;50.992;5.550;2023-09-19T18:59:12;10.13;;;1.92;;
33926;SDS011;20485;50.992;5.550;2023-09-19T19:01:48;9.90;;;2.65;;
33926;SDS011;20485;50.992;5.550;2023-09-19T19:04:19;6.45;;;1.60;;
33926;SDS011;20485;50.992;5.550;2023-09-19T19:06:48;7.63;;;3.22;;
33926;SDS011;20485;50.992;5.550;2023-09-19T19:09:15;8.20;;;2.08;;
33926;SDS011;20485;50.992;5.550;2023-09-19T19:11:44;5.07;;;1.70;;
33926;SDS011;20485;50.992;5.550;2023-09-19T19:14:16;10.18;;;2.55;;
33926;SDS011;20485;50.992;5.550;2023-09-19T19:16:49;10.52;;;2.42;;
33926;SDS011;20485;50.992;5.550;2023-09-19T19:19:20;12.38;;;2.25;;
33926;SDS011;20485;50.992;5.550;2023-09-19T19:21:50;8.55;;;2.28;;
33926;SDS011;20485;50.992;5.550;2023-09-19T19:24:26;6.75;;;1.80;;
33926;SDS011;20485;50.992;5.550;2023-09-19T19:26:52;5.90;;;2.70;;
33926;SDS011;20485;50.992;5.550;2023-09-19T19:29:20;11.68;;;3.28;;
33926;SDS011;20485;50.992;5.550;2023-09-19T19:31:50;9.90;;;1.88;;
33926;SDS011;20485;50.992;5.550;2023-09-19T19:34:18;11.75;;;1.77;;
33926;SDS011;20485;50.992;5.550;2023-09-19T19:37:09;5.82;;;1.77;;
33926;SDS011;20485;50.992;5.550;2023-09-19T19:39:46;6.85;;;1.48;;
33926;SDS011;20485;50.992;5.550;2023-09-19T19:42:23;6.18;;;1.67;;
33926;SDS011;20485;50.992;5.550;2023-09-19T19:44:55;6.78;;;1.50;;
33926;SDS011;20485;50.992;5.550;2023-09-19T19:47:29;7.25;;;1.60;;
33926;SDS011;20485;50.992;5.550;2023-09-19T19:49:55;17.58;;;2.15;;
33926;SDS011;20485;50.992;5.550;2023-09-19T19:52:24;4.72;;;2.00;;
33926;SDS011;20485;50.992;5.550;2023-09-19T19:54:50;7.65;;;1.88;;
33926;SDS011;20485;50.992;5.550;2023-09-19T19:57:16;6.70;;;1.70;;
33926;SDS011;20485;50.992;5.550;2023-09-19T19:59:43;6.07;;;1.95;;
33926;SDS011;20485;50.992;5.550;2023-09-19T20:02:13;11.27;;;1.60;;
33926;SDS011;20485;50.992;5.550;2023-09-19T20:04:40;6.18;;;1.77;;
33926;SDS011;20485;50.992;5.550;2023-09-19T20:07:06;11.60;;;1.83;;
33926;SDS011;20485;50.992;5.550;2023-09-19T20:09:32;9.77;;;1.25;;
33926;SDS011;20485;50.992;5.550;2023-09-19T20:11:59;4.20;;;1.30;;
33926;SDS011;20485;50.992;5.550;2023-09-19T20:14:43;8.02;;;1.60;;
33926;SDS011;20485;50.992;5.550;2023-09-19T20:17:30;7.82;;;1.60;;
33926;SDS011;20485;50.992;5.550;2023-09-19T20:19:57;5.82;;;1.67;;
33926;SDS011;20485;50.992;5.550;2023-09-19T20:22:24;8.35;;;1.35;;
33926;SDS011;20485;50.992;5.550;2023-09-19T20:24:53;7.47;;;1.60;;
33926;SDS011;20485;50.992;5.550;2023-09-19T20:27:23;11.82;;;2.65;;
33926;SDS011;20485;50.992;5.550;2023-09-19T20:29:53;6.63;;;1.98;;
33926;SDS011;20485;50.992;5.550;2023-09-19T20:32:21;8.00;;;1.65;;
33926;SDS011;20485;50.992;5.550;2023-09-19T20:34:51;27.60;;;2.15;;
33926;SDS011;20485;50.992;5.550;2023-09-19T20:37:19;6.43;;;1.92;;
33926;SDS011;20485;50.992;5.550;2023-09-19T20:39:51;7.45;;;1.70;;
33926;SDS011;20485;50.992;5.550;2023-09-19T20:42:24;7.20;;;1.75;;
33926;SDS011;20485;50.992;5.550;2023-09-19T20:44:53;7.38;;;1.65;;
33926;SDS011;20485;50.992;5.550;2023-09-19T20:47:25;11.10;;;1.98;;
33926;SDS011;20485;50.992;5.550;2023-09-19T20:49:56;11.68;;;1.77;;
33926;SDS011;20485;50.992;5.550;2023-09-19T20:52:28;10.85;;;1.98;;
33926;SDS011;20485;50.992;5.550;2023-09-19T20:55:05;8.45;;;1.88;;
33926;SDS011;20485;50.992;5.550;2023-09-19T20:57:45;13.15;;;2.25;;
33926;SDS011;20485;50.992;5.550;2023-09-19T21:00:12;8.10;;;1.60;;
33926;SDS011;20485;50.992;5.550;2023-09-19T21:02:39;8.50;;;1.80;;
33926;SDS011;20485;50.992;5.550;2023-09-19T21:05:07;12.07;;;2.20;;
33926;SDS011;20485;50.992;5.550;2023-09-19T21:07:35;5.53;;;1.73;;
33926;SDS011;20485;50.992;5.550;2023-09-19T21:10:02;11.38;;;2.03;;